PWSweather.com
Personal Weather Stations
Station Observations
NAGEO265NE
Bedzin GrodziecPL 42-506

Bedzin GrodziecPL 42-506

Lat: 50.347, Lon: 19.079

Elevation: 948

Station Type: WH1080

http://www.meteo-grodziec.pl/

High Low Average
Temperature 65.8°F18.8°C 49.3°F9.6°C 58.5°F14.7°C
Dew Point 48.6°F9.2°C 40.3°F4.6°C 43.8°F6.6°C
Winds 5.0 mph 8.0 kmh Calm Calm 2.0 mph SW3.2 kmh SW
Wind Gusts 18.0 mph29.0 kmh -- 7.0 mph11.3 kmh
Humidity 80% 42% 60%
Pressure 29.95 in1014.2 mb 29.84 in1010.5 mb -
Precipitation 0.00 in0.0 mm - -
Hour Temp Dew Point Humidity Winds Wind Gusts Pressure Precip Precip Rate Daily Precip Total
12:00 AM 54.3°F12.4°C 44.8°F7.1°C 70% Calm Calm -- 29.84 in1010.5 mb 0.00 in0.0 mm 0.00 in0.0 mm 0.00 in0.0 mm
12:05 AM 54.3°F12.4°C 44.8°F7.1°C 70% Calm Calm -- 29.84 in1010.5 mb 0.00 in0.0 mm 0.00 in0.0 mm 0.00 in0.0 mm
12:10 AM 54.1°F12.3°C 45.0°F7.2°C 71% Calm Calm -- 29.84 in1010.5 mb 0.00 in0.0 mm 0.00 in0.0 mm 0.00 in0.0 mm
12:15 AM 53.6°F12.0°C 44.8°F7.1°C 72% Calm Calm -- 29.84 in1010.5 mb 0.00 in0.0 mm 0.00 in0.0 mm 0.00 in0.0 mm
12:20 AM 53.1°F11.7°C 44.6°F7.0°C 73% Calm Calm -- 29.84 in1010.5 mb 0.00 in0.0 mm 0.00 in0.0 mm 0.00 in0.0 mm
12:25 AM 52.9°F11.6°C 44.8°F7.1°C 74% Calm Calm -- 29.84 in1010.5 mb 0.00 in0.0 mm 0.00 in0.0 mm 0.00 in0.0 mm
12:30 AM 52.3°F11.3°C 44.2°F6.8°C 74% Calm Calm -- 29.84 in1010.5 mb 0.00 in0.0 mm 0.00 in0.0 mm 0.00 in0.0 mm
12:35 AM 52.0°F11.1°C 44.6°F7.0°C 76% Calm Calm -- 29.84 in1010.5 mb 0.00 in0.0 mm 0.00 in0.0 mm 0.00 in0.0 mm
12:40 AM 51.8°F11.0°C 44.4°F6.9°C 76% Calm Calm -- 29.85 in1010.8 mb 0.00 in0.0 mm 0.00 in0.0 mm 0.00 in0.0 mm
12:45 AM 52.0°F11.1°C 44.6°F7.0°C 76% Calm Calm -- 29.85 in1010.8 mb 0.00 in0.0 mm 0.00 in0.0 mm 0.00 in0.0 mm
12:50 AM 52.0°F11.1°C 44.6°F7.0°C 76% Calm Calm -- 29.85 in1010.8 mb 0.00 in0.0 mm 0.00 in0.0 mm 0.00 in0.0 mm
12:55 AM 51.6°F10.9°C 44.2°F6.8°C 76% Calm Calm -- 29.85 in1010.8 mb 0.00 in0.0 mm 0.00 in0.0 mm 0.00 in0.0 mm
01:00 AM 51.3°F10.7°C 44.2°F6.8°C 77% Calm Calm -- 29.85 in1010.8 mb 0.00 in0.0 mm 0.00 in0.0 mm 0.00 in0.0 mm
01:05 AM 50.9°F10.5°C 44.2°F6.8°C 78% Calm Calm -- 29.85 in1010.8 mb 0.00 in0.0 mm 0.00 in0.0 mm 0.00 in0.0 mm
01:10 AM 50.7°F10.4°C 44.2°F6.8°C 78% Calm Calm -- 29.86 in1011.2 mb 0.00 in0.0 mm 0.00 in0.0 mm 0.00 in0.0 mm
01:15 AM 50.7°F10.4°C 44.4°F6.9°C 79% Calm Calm -- 29.86 in1011.2 mb 0.00 in0.0 mm 0.00 in0.0 mm 0.00 in0.0 mm
01:20 AM 50.5°F10.3°C 44.2°F6.8°C 79% Calm Calm -- 29.86 in1011.2 mb 0.00 in0.0 mm 0.00 in0.0 mm 0.00 in0.0 mm
01:25 AM 50.5°F10.3°C 44.6°F7.0°C 80% Calm Calm -- 29.86 in1011.2 mb 0.00 in0.0 mm 0.00 in0.0 mm 0.00 in0.0 mm
01:30 AM 50.7°F10.4°C 44.8°F7.1°C 80% Calm Calm -- 29.86 in1011.2 mb 0.00 in0.0 mm 0.00 in0.0 mm 0.00 in0.0 mm
01:35 AM 50.7°F10.4°C 44.8°F7.1°C 80% Calm Calm -- 29.86 in1011.2 mb 0.00 in0.0 mm 0.00 in0.0 mm 0.00 in0.0 mm
01:40 AM 50.7°F10.4°C 44.8°F7.1°C 80% Calm Calm -- 29.86 in1011.2 mb 0.00 in0.0 mm 0.00 in0.0 mm 0.00 in0.0 mm
01:45 AM 50.9°F10.5°C 45.0°F7.2°C 80% Calm Calm -- 29.86 in1011.2 mb 0.00 in0.0 mm 0.00 in0.0 mm 0.00 in0.0 mm
01:50 AM 51.1°F10.6°C 44.8°F7.1°C 79% Calm Calm -- 29.86 in1011.2 mb 0.00 in0.0 mm 0.00 in0.0 mm 0.00 in0.0 mm
01:55 AM 51.1°F10.6°C 44.8°F7.1°C 79% Calm Calm -- 29.85 in1010.8 mb 0.00 in0.0 mm 0.00 in0.0 mm 0.00 in0.0 mm
02:00 AM 51.3°F10.7°C 45.0°F7.2°C 79% Calm Calm -- 29.86 in1011.2 mb 0.00 in0.0 mm 0.00 in0.0 mm 0.00 in0.0 mm
02:05 AM 51.6°F10.9°C 45.3°F7.4°C 79% Calm Calm -- 29.86 in1011.2 mb 0.00 in0.0 mm 0.00 in0.0 mm 0.00 in0.0 mm
02:10 AM 51.6°F10.9°C 45.3°F7.4°C 79% Calm Calm -- 29.86 in1011.2 mb 0.00 in0.0 mm 0.00 in0.0 mm 0.00 in0.0 mm
02:15 AM 51.6°F10.9°C 45.3°F7.4°C 79% Calm Calm -- 29.86 in1011.2 mb 0.00 in0.0 mm 0.00 in0.0 mm 0.00 in0.0 mm
02:20 AM 51.6°F10.9°C 45.3°F7.4°C 79% Calm Calm -- 29.85 in1010.8 mb 0.00 in0.0 mm 0.00 in0.0 mm 0.00 in0.0 mm
02:25 AM 51.6°F10.9°C 45.7°F7.6°C 80% Calm Calm -- 29.86 in1011.2 mb 0.00 in0.0 mm 0.00 in0.0 mm 0.00 in0.0 mm
02:30 AM 51.8°F11.0°C 45.5°F7.5°C 79% Calm Calm -- 29.85 in1010.8 mb 0.00 in0.0 mm 0.00 in0.0 mm 0.00 in0.0 mm
02:35 AM 51.8°F11.0°C 45.5°F7.5°C 79% Calm Calm -- 29.86 in1011.2 mb 0.00 in0.0 mm 0.00 in0.0 mm 0.00 in0.0 mm
02:40 AM 52.0°F11.1°C 45.7°F7.6°C 79% Calm Calm -- 29.86 in1011.2 mb 0.00 in0.0 mm 0.00 in0.0 mm 0.00 in0.0 mm
02:45 AM 52.2°F11.2°C 45.5°F7.5°C 78% Calm Calm -- 29.86 in1011.2 mb 0.00 in0.0 mm 0.00 in0.0 mm 0.00 in0.0 mm
02:50 AM 52.3°F11.3°C 45.7°F7.6°C 78% Calm Calm 1.0 mph1.6 kmh 29.86 in1011.2 mb 0.00 in0.0 mm 0.00 in0.0 mm 0.00 in0.0 mm
02:55 AM 52.5°F11.4°C 45.5°F7.5°C 77% Calm Calm 1.0 mph1.6 kmh 29.86 in1011.2 mb 0.00 in0.0 mm 0.00 in0.0 mm 0.00 in0.0 mm
03:00 AM 52.5°F11.4°C 45.7°F7.6°C 77% Calm Calm 2.0 mph3.2 kmh 29.86 in1011.2 mb 0.00 in0.0 mm 0.00 in0.0 mm 0.00 in0.0 mm
03:05 AM 52.5°F11.4°C 45.3°F7.4°C 76% Calm Calm 3.0 mph4.8 kmh 29.86 in1011.2 mb 0.00 in0.0 mm 0.00 in0.0 mm 0.00 in0.0 mm
03:10 AM 52.5°F11.4°C 45.3°F7.4°C 76% Calm Calm 3.0 mph4.8 kmh 29.86 in1011.2 mb 0.00 in0.0 mm 0.00 in0.0 mm 0.00 in0.0 mm
03:15 AM 52.7°F11.5°C 45.7°F7.6°C 77% Calm Calm 1.0 mph1.6 kmh 29.86 in1011.2 mb 0.00 in0.0 mm 0.00 in0.0 mm 0.00 in0.0 mm
03:20 AM 52.7°F11.5°C 45.7°F7.6°C 77% Calm Calm 1.0 mph1.6 kmh 29.86 in1011.2 mb 0.00 in0.0 mm 0.00 in0.0 mm 0.00 in0.0 mm
03:25 AM 52.9°F11.6°C 46.0°F7.8°C 78% Calm Calm -- 29.86 in1011.2 mb 0.00 in0.0 mm 0.00 in0.0 mm 0.00 in0.0 mm
03:30 AM 52.9°F11.6°C 45.9°F7.7°C 77% Calm Calm 3.0 mph4.8 kmh 29.86 in1011.2 mb 0.00 in0.0 mm 0.00 in0.0 mm 0.00 in0.0 mm
03:35 AM 53.1°F11.7°C 45.7°F7.6°C 76% Calm Calm 3.0 mph4.8 kmh 29.86 in1011.2 mb 0.00 in0.0 mm 0.00 in0.0 mm 0.00 in0.0 mm
03:40 AM 53.2°F11.8°C 45.9°F7.7°C 76% Calm Calm 2.0 mph3.2 kmh 29.86 in1011.2 mb 0.00 in0.0 mm 0.00 in0.0 mm 0.00 in0.0 mm
03:45 AM 53.2°F11.8°C 45.5°F7.5°C 75% Calm Calm 3.0 mph4.8 kmh 29.86 in1011.2 mb 0.00 in0.0 mm 0.00 in0.0 mm 0.00 in0.0 mm
03:50 AM 53.2°F11.8°C 45.5°F7.5°C 75% 1.0 mph NW1.6 kmh NW 4.0 mph6.4 kmh 29.86 in1011.2 mb 0.00 in0.0 mm 0.00 in0.0 mm 0.00 in0.0 mm
03:55 AM 53.2°F11.8°C 45.9°F7.7°C 76% 1.0 mph NW1.6 kmh NW 4.0 mph6.4 kmh 29.86 in1011.2 mb 0.00 in0.0 mm 0.00 in0.0 mm 0.00 in0.0 mm
04:00 AM 53.2°F11.8°C 45.9°F7.7°C 76% 1.0 mph NW1.6 kmh NW 4.0 mph6.4 kmh 29.86 in1011.2 mb 0.00 in0.0 mm 0.00 in0.0 mm 0.00 in0.0 mm
04:05 AM 53.2°F11.8°C 45.9°F7.7°C 76% 1.0 mph NW1.6 kmh NW 4.0 mph6.4 kmh 29.86 in1011.2 mb 0.00 in0.0 mm 0.00 in0.0 mm 0.00 in0.0 mm
04:10 AM 53.4°F11.9°C 46.0°F7.8°C 76% 1.0 mph NW1.6 kmh NW 5.0 mph8.0 kmh 29.86 in1011.2 mb 0.00 in0.0 mm 0.00 in0.0 mm 0.00 in0.0 mm
04:15 AM 53.4°F11.9°C 46.0°F7.8°C 76% 1.0 mph NW1.6 kmh NW 5.0 mph8.0 kmh 29.86 in1011.2 mb 0.00 in0.0 mm 0.00 in0.0 mm 0.00 in0.0 mm
04:20 AM 53.4°F11.9°C 46.0°F7.8°C 76% 1.0 mph NW1.6 kmh NW 5.0 mph8.0 kmh 29.86 in1011.2 mb 0.00 in0.0 mm 0.00 in0.0 mm 0.00 in0.0 mm
04:25 AM 53.6°F12.0°C 46.2°F7.9°C 76% 1.0 mph NW1.6 kmh NW 5.0 mph8.0 kmh 29.86 in1011.2 mb 0.00 in0.0 mm 0.00 in0.0 mm 0.00 in0.0 mm
04:30 AM 53.8°F12.1°C 46.4°F8.0°C 76% Calm Calm 3.0 mph4.8 kmh 29.86 in1011.2 mb 0.00 in0.0 mm 0.00 in0.0 mm 0.00 in0.0 mm
04:35 AM 54.1°F12.3°C 46.4°F8.0°C 75% Calm Calm 3.0 mph4.8 kmh 29.86 in1011.2 mb 0.00 in0.0 mm 0.00 in0.0 mm 0.00 in0.0 mm
04:40 AM 54.1°F12.3°C 46.4°F8.0°C 75% Calm Calm 4.0 mph6.4 kmh 29.86 in1011.2 mb 0.00 in0.0 mm 0.00 in0.0 mm 0.00 in0.0 mm
04:45 AM 54.3°F12.4°C 46.2°F7.9°C 74% Calm Calm 4.0 mph6.4 kmh 29.86 in1011.2 mb 0.00 in0.0 mm 0.00 in0.0 mm 0.00 in0.0 mm
04:50 AM 54.7°F12.6°C 46.4°F8.0°C 74% Calm Calm 3.0 mph4.8 kmh 29.86 in1011.2 mb 0.00 in0.0 mm 0.00 in0.0 mm 0.00 in0.0 mm
04:55 AM 54.9°F12.7°C 46.2°F7.9°C 73% Calm Calm 3.0 mph4.8 kmh 29.87 in1011.5 mb 0.00 in0.0 mm 0.00 in0.0 mm 0.00 in0.0 mm
05:00 AM 55.0°F12.8°C 46.6°F8.1°C 73% 1.0 mph NW1.6 kmh NW 3.0 mph4.8 kmh 29.87 in1011.5 mb 0.00 in0.0 mm 0.00 in0.0 mm 0.00 in0.0 mm
05:05 AM 55.2°F12.9°C 46.4°F8.0°C 72% Calm Calm 3.0 mph4.8 kmh 29.87 in1011.5 mb 0.00 in0.0 mm 0.00 in0.0 mm 0.00 in0.0 mm
05:10 AM 55.4°F13.0°C 46.6°F8.1°C 72% Calm Calm 3.0 mph4.8 kmh 29.87 in1011.5 mb 0.00 in0.0 mm 0.00 in0.0 mm 0.00 in0.0 mm
05:15 AM 55.8°F13.2°C 46.8°F8.2°C 72% 1.0 mph NW1.6 kmh NW 3.0 mph4.8 kmh 29.87 in1011.5 mb 0.00 in0.0 mm 0.00 in0.0 mm 0.00 in0.0 mm
05:20 AM 55.9°F13.3°C 46.6°F8.1°C 71% 1.0 mph NW1.6 kmh NW 4.0 mph6.4 kmh 29.87 in1011.5 mb 0.00 in0.0 mm 0.00 in0.0 mm 0.00 in0.0 mm
05:25 AM 56.1°F13.4°C 47.3°F8.5°C 72% Calm Calm 4.0 mph6.4 kmh 29.88 in1011.9 mb 0.00 in0.0 mm 0.00 in0.0 mm 0.00 in0.0 mm
05:30 AM 56.5°F13.6°C 47.1°F8.4°C 71% Calm Calm 5.0 mph8.0 kmh 29.88 in1011.9 mb 0.00 in0.0 mm 0.00 in0.0 mm 0.00 in0.0 mm
05:35 AM 56.7°F13.7°C 46.9°F8.3°C 70% Calm Calm 5.0 mph8.0 kmh 29.88 in1011.9 mb 0.00 in0.0 mm 0.00 in0.0 mm 0.00 in0.0 mm
05:40 AM 56.8°F13.8°C 47.1°F8.4°C 70% 1.0 mph W1.6 kmh W 4.0 mph6.4 kmh 29.88 in1011.9 mb 0.00 in0.0 mm 0.00 in0.0 mm 0.00 in0.0 mm
05:45 AM 56.5°F13.6°C 47.1°F8.4°C 71% 1.0 mph WSW1.6 kmh WSW 7.0 mph11.3 kmh 29.88 in1011.9 mb 0.00 in0.0 mm 0.00 in0.0 mm 0.00 in0.0 mm
05:50 AM 56.7°F13.7°C 46.9°F8.3°C 70% 2.0 mph W3.2 kmh W 7.0 mph11.3 kmh 29.89 in1012.2 mb 0.00 in0.0 mm 0.00 in0.0 mm 0.00 in0.0 mm
05:55 AM 56.7°F13.7°C 46.9°F8.3°C 70% 2.0 mph NW3.2 kmh NW 9.0 mph14.5 kmh 29.89 in1012.2 mb 0.00 in0.0 mm 0.00 in0.0 mm 0.00 in0.0 mm
06:00 AM 56.7°F13.7°C 46.9°F8.3°C 70% 3.0 mph NW4.8 kmh NW 9.0 mph14.5 kmh 29.89 in1012.2 mb 0.00 in0.0 mm 0.00 in0.0 mm 0.00 in0.0 mm
06:05 AM 56.8°F13.8°C 47.3°F8.5°C 70% 2.0 mph WNW3.2 kmh WNW 8.0 mph12.9 kmh 29.89 in1012.2 mb 0.00 in0.0 mm 0.00 in0.0 mm 0.00 in0.0 mm
06:10 AM 57.4°F14.1°C 47.7°F8.7°C 70% 2.0 mph WNW3.2 kmh WNW 7.0 mph11.3 kmh 29.89 in1012.2 mb 0.00 in0.0 mm 0.00 in0.0 mm 0.00 in0.0 mm
06:15 AM 57.6°F14.2°C 47.5°F8.6°C 69% 2.0 mph NW3.2 kmh NW 8.0 mph12.9 kmh 29.89 in1012.2 mb 0.00 in0.0 mm 0.00 in0.0 mm 0.00 in0.0 mm
06:20 AM 57.0°F13.9°C 47.3°F8.5°C 70% 3.0 mph NW4.8 kmh NW 8.0 mph12.9 kmh 29.89 in1012.2 mb 0.00 in0.0 mm 0.00 in0.0 mm 0.00 in0.0 mm
06:25 AM 57.0°F13.9°C 47.3°F8.5°C 70% 3.0 mph WNW4.8 kmh WNW 10.0 mph16.1 kmh 29.89 in1012.2 mb 0.00 in0.0 mm 0.00 in0.0 mm 0.00 in0.0 mm
06:30 AM 57.0°F13.9°C 47.7°F8.7°C 71% 3.0 mph NW4.8 kmh NW 10.0 mph16.1 kmh 29.90 in1012.5 mb 0.00 in0.0 mm 0.00 in0.0 mm 0.00 in0.0 mm
06:35 AM 57.4°F14.1°C 47.7°F8.7°C 70% 3.0 mph NW4.8 kmh NW 9.0 mph14.5 kmh 29.90 in1012.5 mb 0.00 in0.0 mm 0.00 in0.0 mm 0.00 in0.0 mm
06:40 AM 57.6°F14.2°C 47.8°F8.8°C 70% 3.0 mph WNW4.8 kmh WNW 9.0 mph14.5 kmh 29.90 in1012.5 mb 0.00 in0.0 mm 0.00 in0.0 mm 0.00 in0.0 mm
06:45 AM 57.6°F14.2°C 47.8°F8.8°C 70% 3.0 mph WNW4.8 kmh WNW 10.0 mph16.1 kmh 29.90 in1012.5 mb 0.00 in0.0 mm 0.00 in0.0 mm 0.00 in0.0 mm
06:50 AM 57.4°F14.1°C 48.0°F8.9°C 71% 4.0 mph NW6.4 kmh NW 12.0 mph19.3 kmh 29.90 in1012.5 mb 0.00 in0.0 mm 0.00 in0.0 mm 0.00 in0.0 mm
06:55 AM 57.7°F14.3°C 48.0°F8.9°C 70% 4.0 mph NW6.4 kmh NW 12.0 mph19.3 kmh 29.90 in1012.5 mb 0.00 in0.0 mm 0.00 in0.0 mm 0.00 in0.0 mm
07:00 AM 58.3°F14.6°C 48.4°F9.1°C 70% 3.0 mph NW4.8 kmh NW 11.0 mph17.7 kmh 29.91 in1012.9 mb 0.00 in0.0 mm 0.00 in0.0 mm 0.00 in0.0 mm
07:05 AM 58.3°F14.6°C 48.2°F9.0°C 69% 3.0 mph NW4.8 kmh NW 11.0 mph17.7 kmh 29.91 in1012.9 mb 0.00 in0.0 mm 0.00 in0.0 mm 0.00 in0.0 mm
07:10 AM 58.3°F14.6°C 48.2°F9.0°C 69% 3.0 mph NW4.8 kmh NW 9.0 mph14.5 kmh 29.91 in1012.9 mb 0.00 in0.0 mm 0.00 in0.0 mm 0.00 in0.0 mm
07:15 AM 58.3°F14.6°C 48.2°F9.0°C 69% 3.0 mph NW4.8 kmh NW 8.0 mph12.9 kmh 29.91 in1012.9 mb 0.00 in0.0 mm 0.00 in0.0 mm 0.00 in0.0 mm
07:20 AM 58.3°F14.6°C 48.0°F8.9°C 69% 3.0 mph NW4.8 kmh NW 10.0 mph16.1 kmh 29.91 in1012.9 mb 0.00 in0.0 mm 0.00 in0.0 mm 0.00 in0.0 mm
07:25 AM 58.3°F14.6°C 48.6°F9.2°C 70% 4.0 mph NW6.4 kmh NW 11.0 mph17.7 kmh 29.91 in1012.9 mb 0.00 in0.0 mm 0.00 in0.0 mm 0.00 in0.0 mm
07:30 AM 58.8°F14.9°C 48.4°F9.1°C 68% 4.0 mph NW6.4 kmh NW 11.0 mph17.7 kmh 29.91 in1012.9 mb 0.00 in0.0 mm 0.00 in0.0 mm 0.00 in0.0 mm
07:35 AM 59.4°F15.2°C 48.0°F8.9°C 66% 3.0 mph NW4.8 kmh NW 10.0 mph16.1 kmh 29.91 in1012.9 mb 0.00 in0.0 mm 0.00 in0.0 mm 0.00 in0.0 mm
07:40 AM 59.9°F15.5°C 48.0°F8.9°C 65% 3.0 mph WNW4.8 kmh WNW 9.0 mph14.5 kmh 29.91 in1012.9 mb 0.00 in0.0 mm 0.00 in0.0 mm 0.00 in0.0 mm
07:45 AM 60.3°F15.7°C 48.6°F9.2°C 65% 2.0 mph WNW3.2 kmh WNW 9.0 mph14.5 kmh 29.91 in1012.9 mb 0.00 in0.0 mm 0.00 in0.0 mm 0.00 in0.0 mm
07:50 AM 60.3°F15.7°C 47.7°F8.7°C 63% 2.0 mph NW3.2 kmh NW 11.0 mph17.7 kmh 29.91 in1012.9 mb 0.00 in0.0 mm 0.00 in0.0 mm 0.00 in0.0 mm
07:55 AM 60.4°F15.8°C 47.7°F8.7°C 63% 3.0 mph NW4.8 kmh NW 11.0 mph17.7 kmh 29.91 in1012.9 mb 0.00 in0.0 mm 0.00 in0.0 mm 0.00 in0.0 mm
08:00 AM 60.1°F15.6°C 47.5°F8.6°C 63% 4.0 mph WNW6.4 kmh WNW 14.0 mph22.5 kmh 29.91 in1012.9 mb 0.00 in0.0 mm 0.00 in0.0 mm 0.00 in0.0 mm
08:05 AM 60.3°F15.7°C 47.5°F8.6°C 63% 5.0 mph NW8.0 kmh NW 14.0 mph22.5 kmh 29.91 in1012.9 mb 0.00 in0.0 mm 0.00 in0.0 mm 0.00 in0.0 mm
08:10 AM 60.3°F15.7°C 46.8°F8.2°C 61% 5.0 mph NW8.0 kmh NW 14.0 mph22.5 kmh 29.91 in1012.9 mb 0.00 in0.0 mm 0.00 in0.0 mm 0.00 in0.0 mm
08:15 AM 60.6°F15.9°C 47.1°F8.4°C 61% 4.0 mph NW6.4 kmh NW 14.0 mph22.5 kmh 29.91 in1012.9 mb 0.00 in0.0 mm 0.00 in0.0 mm 0.00 in0.0 mm
08:20 AM 60.4°F15.8°C 46.0°F7.8°C 59% 5.0 mph NW8.0 kmh NW 13.0 mph20.9 kmh 29.91 in1012.9 mb 0.00 in0.0 mm 0.00 in0.0 mm 0.00 in0.0 mm
08:25 AM 61.3°F16.3°C 46.9°F8.3°C 59% 4.0 mph NW6.4 kmh NW 13.0 mph20.9 kmh 29.91 in1012.9 mb 0.00 in0.0 mm 0.00 in0.0 mm 0.00 in0.0 mm
08:30 AM 61.3°F16.3°C 45.9°F7.7°C 57% 3.0 mph NW4.8 kmh NW 12.0 mph19.3 kmh 29.91 in1012.9 mb 0.00 in0.0 mm 0.00 in0.0 mm 0.00 in0.0 mm
08:35 AM 61.2°F16.2°C 45.7°F7.6°C 57% 4.0 mph NW6.4 kmh NW 13.0 mph20.9 kmh 29.92 in1013.2 mb 0.00 in0.0 mm 0.00 in0.0 mm 0.00 in0.0 mm
08:40 AM 61.3°F16.3°C 45.1°F7.3°C 55% 4.0 mph NW6.4 kmh NW 13.0 mph20.9 kmh 29.91 in1012.9 mb 0.00 in0.0 mm 0.00 in0.0 mm 0.00 in0.0 mm
08:45 AM 61.9°F16.6°C 44.4°F6.9°C 53% 4.0 mph NW6.4 kmh NW 13.0 mph20.9 kmh 29.91 in1012.9 mb 0.00 in0.0 mm 0.00 in0.0 mm 0.00 in0.0 mm
08:50 AM 61.3°F16.3°C 44.4°F6.9°C 54% 4.0 mph NW6.4 kmh NW 13.0 mph20.9 kmh 29.91 in1012.9 mb 0.00 in0.0 mm 0.00 in0.0 mm 0.00 in0.0 mm
08:55 AM 61.3°F16.3°C 43.5°F6.4°C 52% 4.0 mph NW6.4 kmh NW 13.0 mph20.9 kmh 29.91 in1012.9 mb 0.00 in0.0 mm 0.00 in0.0 mm 0.00 in0.0 mm
09:00 AM 61.0°F16.1°C 44.2°F6.8°C 54% 5.0 mph NW8.0 kmh NW 13.0 mph20.9 kmh 29.91 in1012.9 mb 0.00 in0.0 mm 0.00 in0.0 mm 0.00 in0.0 mm
09:05 AM 61.3°F16.3°C 43.5°F6.4°C 52% 5.0 mph NW8.0 kmh NW 13.0 mph20.9 kmh 29.91 in1012.9 mb 0.00 in0.0 mm 0.00 in0.0 mm 0.00 in0.0 mm
09:10 AM 62.4°F16.9°C 44.6°F7.0°C 52% 3.0 mph WNW4.8 kmh WNW 11.0 mph17.7 kmh 29.92 in1013.2 mb 0.00 in0.0 mm 0.00 in0.0 mm 0.00 in0.0 mm
09:15 AM 62.4°F16.9°C 43.5°F6.4°C 50% 3.0 mph WNW4.8 kmh WNW 12.0 mph19.3 kmh 29.92 in1013.2 mb 0.00 in0.0 mm 0.00 in0.0 mm 0.00 in0.0 mm
09:20 AM 62.1°F16.7°C 44.2°F6.8°C 52% 3.0 mph WNW4.8 kmh WNW 12.0 mph19.3 kmh 29.92 in1013.2 mb 0.00 in0.0 mm 0.00 in0.0 mm 0.00 in0.0 mm
09:25 AM 61.3°F16.3°C 44.1°F6.7°C 53% 3.0 mph WNW4.8 kmh WNW 8.0 mph12.9 kmh 29.92 in1013.2 mb 0.00 in0.0 mm 0.00 in0.0 mm 0.00 in0.0 mm
09:30 AM 60.8°F16.0°C 44.1°F6.7°C 54% 3.0 mph WNW4.8 kmh WNW 9.0 mph14.5 kmh 29.92 in1013.2 mb 0.00 in0.0 mm 0.00 in0.0 mm 0.00 in0.0 mm
09:35 AM 60.3°F15.7°C 43.5°F6.4°C 54% 3.0 mph NW4.8 kmh NW 12.0 mph19.3 kmh 29.92 in1013.2 mb 0.00 in0.0 mm 0.00 in0.0 mm 0.00 in0.0 mm
09:40 AM 60.4°F15.8°C 44.2°F6.8°C 55% 3.0 mph WNW4.8 kmh WNW 12.0 mph19.3 kmh 29.93 in1013.5 mb 0.00 in0.0 mm 0.00 in0.0 mm 0.00 in0.0 mm
09:45 AM 60.3°F15.7°C 44.1°F6.7°C 55% 2.0 mph W3.2 kmh W 11.0 mph17.7 kmh 29.93 in1013.5 mb 0.00 in0.0 mm 0.00 in0.0 mm 0.00 in0.0 mm
09:50 AM 60.3°F15.7°C 44.1°F6.7°C 55% 3.0 mph W4.8 kmh W 11.0 mph17.7 kmh 29.93 in1013.5 mb 0.00 in0.0 mm 0.00 in0.0 mm 0.00 in0.0 mm
09:55 AM 60.6°F15.9°C 44.4°F6.9°C 55% 2.0 mph WNW3.2 kmh WNW 8.0 mph12.9 kmh 29.93 in1013.5 mb 0.00 in0.0 mm 0.00 in0.0 mm 0.00 in0.0 mm
10:00 AM 60.8°F16.0°C 44.1°F6.7°C 54% 2.0 mph NW3.2 kmh NW 8.0 mph12.9 kmh 29.93 in1013.5 mb 0.00 in0.0 mm 0.00 in0.0 mm 0.00 in0.0 mm
10:05 AM 61.0°F16.1°C 44.6°F7.0°C 55% 3.0 mph W4.8 kmh W 11.0 mph17.7 kmh 29.93 in1013.5 mb 0.00 in0.0 mm 0.00 in0.0 mm 0.00 in0.0 mm
10:10 AM 61.0°F16.1°C 43.7°F6.5°C 53% 3.0 mph W4.8 kmh W 11.0 mph17.7 kmh 29.93 in1013.5 mb 0.00 in0.0 mm 0.00 in0.0 mm 0.00 in0.0 mm
10:15 AM 60.8°F16.0°C 43.0°F6.1°C 52% 3.0 mph NW4.8 kmh NW 9.0 mph14.5 kmh 29.93 in1013.5 mb 0.00 in0.0 mm 0.00 in0.0 mm 0.00 in0.0 mm
10:20 AM 60.8°F16.0°C 43.0°F6.1°C 52% 3.0 mph NW4.8 kmh NW 9.0 mph14.5 kmh 29.93 in1013.5 mb 0.00 in0.0 mm 0.00 in0.0 mm 0.00 in0.0 mm
10:25 AM 60.8°F16.0°C 43.5°F6.4°C 53% 2.0 mph NW3.2 kmh NW 9.0 mph14.5 kmh 29.93 in1013.5 mb 0.00 in0.0 mm 0.00 in0.0 mm 0.00 in0.0 mm
10:30 AM 60.6°F15.9°C 43.0°F6.1°C 52% 3.0 mph NW4.8 kmh NW 10.0 mph16.1 kmh 29.93 in1013.5 mb 0.00 in0.0 mm 0.00 in0.0 mm 0.00 in0.0 mm
10:35 AM 60.4°F15.8°C 42.8°F6.0°C 52% 3.0 mph NW4.8 kmh NW 11.0 mph17.7 kmh 29.94 in1013.9 mb 0.00 in0.0 mm 0.00 in0.0 mm 0.00 in0.0 mm
10:40 AM 60.3°F15.7°C 42.6°F5.9°C 52% 3.0 mph WNW4.8 kmh WNW 13.0 mph20.9 kmh 29.93 in1013.5 mb 0.00 in0.0 mm 0.00 in0.0 mm 0.00 in0.0 mm
10:45 AM 60.1°F15.6°C 43.3°F6.3°C 54% 4.0 mph NW6.4 kmh NW 13.0 mph20.9 kmh 29.94 in1013.9 mb 0.00 in0.0 mm 0.00 in0.0 mm 0.00 in0.0 mm
10:50 AM 60.4°F15.8°C 43.7°F6.5°C 54% 3.0 mph NW4.8 kmh NW 9.0 mph14.5 kmh 29.93 in1013.5 mb 0.00 in0.0 mm 0.00 in0.0 mm 0.00 in0.0 mm
10:55 AM 60.4°F15.8°C 43.7°F6.5°C 54% 2.0 mph WNW3.2 kmh WNW 9.0 mph14.5 kmh 29.94 in1013.9 mb 0.00 in0.0 mm 0.00 in0.0 mm 0.00 in0.0 mm
11:00 AM 60.4°F15.8°C 43.3°F6.3°C 53% 2.0 mph NW3.2 kmh NW 7.0 mph11.3 kmh 29.94 in1013.9 mb 0.00 in0.0 mm 0.00 in0.0 mm 0.00 in0.0 mm
11:05 AM 60.4°F15.8°C 42.8°F6.0°C 52% 2.0 mph NW3.2 kmh NW 8.0 mph12.9 kmh 29.94 in1013.9 mb 0.00 in0.0 mm 0.00 in0.0 mm 0.00 in0.0 mm
11:10 AM 60.6°F15.9°C 43.5°F6.4°C 53% 2.0 mph NW3.2 kmh NW 8.0 mph12.9 kmh 29.94 in1013.9 mb 0.00 in0.0 mm 0.00 in0.0 mm 0.00 in0.0 mm
11:15 AM 61.3°F16.3°C 43.2°F6.2°C 51% 2.0 mph WNW3.2 kmh WNW 9.0 mph14.5 kmh 29.94 in1013.9 mb 0.00 in0.0 mm 0.00 in0.0 mm 0.00 in0.0 mm
11:20 AM 61.9°F16.6°C 42.4°F5.8°C 49% 3.0 mph W4.8 kmh W 10.0 mph16.1 kmh 29.94 in1013.9 mb 0.00 in0.0 mm 0.00 in0.0 mm 0.00 in0.0 mm
11:25 AM 62.4°F16.9°C 42.6°F5.9°C 48% 3.0 mph W4.8 kmh W 10.0 mph16.1 kmh 29.93 in1013.5 mb 0.00 in0.0 mm 0.00 in0.0 mm 0.00 in0.0 mm
11:30 AM 62.4°F16.9°C 41.4°F5.2°C 46% 4.0 mph WSW6.4 kmh WSW 11.0 mph17.7 kmh 29.93 in1013.5 mb 0.00 in0.0 mm 0.00 in0.0 mm 0.00 in0.0 mm
11:35 AM 62.8°F17.1°C 41.7°F5.4°C 46% 4.0 mph WSW6.4 kmh WSW 11.0 mph17.7 kmh 29.93 in1013.5 mb 0.00 in0.0 mm 0.00 in0.0 mm 0.00 in0.0 mm
11:40 AM 63.3°F17.4°C 41.0°F5.0°C 44% 3.0 mph WSW4.8 kmh WSW 10.0 mph16.1 kmh 29.93 in1013.5 mb 0.00 in0.0 mm 0.00 in0.0 mm 0.00 in0.0 mm
11:45 AM 62.8°F17.1°C 40.5°F4.7°C 44% 3.0 mph WSW4.8 kmh WSW 11.0 mph17.7 kmh 29.93 in1013.5 mb 0.00 in0.0 mm 0.00 in0.0 mm 0.00 in0.0 mm
11:50 AM 62.6°F17.0°C 40.3°F4.6°C 44% 4.0 mph WSW6.4 kmh WSW 18.0 mph29.0 kmh 29.93 in1013.5 mb 0.00 in0.0 mm 0.00 in0.0 mm 0.00 in0.0 mm
11:55 AM 62.8°F17.1°C 40.5°F4.7°C 44% 3.0 mph WSW4.8 kmh WSW 18.0 mph29.0 kmh 29.93 in1013.5 mb 0.00 in0.0 mm 0.00 in0.0 mm 0.00 in0.0 mm
12:00 PM 62.6°F17.0°C 41.0°F5.0°C 45% 3.0 mph WSW4.8 kmh WSW 8.0 mph12.9 kmh 29.93 in1013.5 mb 0.00 in0.0 mm 0.00 in0.0 mm 0.00 in0.0 mm
12:05 PM 63.0°F17.2°C 40.6°F4.8°C 44% 3.0 mph W4.8 kmh W 12.0 mph19.3 kmh 29.93 in1013.5 mb 0.00 in0.0 mm 0.00 in0.0 mm 0.00 in0.0 mm
12:10 PM 63.0°F17.2°C 40.8°F4.9°C 44% 3.0 mph W4.8 kmh W 12.0 mph19.3 kmh 29.93 in1013.5 mb 0.00 in0.0 mm 0.00 in0.0 mm 0.00 in0.0 mm
12:15 PM 63.0°F17.2°C 41.2°F5.1°C 45% 3.0 mph WNW4.8 kmh WNW 10.0 mph16.1 kmh 29.93 in1013.5 mb 0.00 in0.0 mm 0.00 in0.0 mm 0.00 in0.0 mm
12:20 PM 62.4°F16.9°C 40.8°F4.9°C 45% 4.0 mph NW6.4 kmh NW 12.0 mph19.3 kmh 29.93 in1013.5 mb 0.00 in0.0 mm 0.00 in0.0 mm 0.00 in0.0 mm
12:25 PM 62.1°F16.7°C 41.5°F5.3°C 47% 4.0 mph NW6.4 kmh NW 12.0 mph19.3 kmh 29.94 in1013.9 mb 0.00 in0.0 mm 0.00 in0.0 mm 0.00 in0.0 mm
12:30 PM 61.7°F16.5°C 41.2°F5.1°C 47% 4.0 mph NW6.4 kmh NW 11.0 mph17.7 kmh 29.94 in1013.9 mb 0.00 in0.0 mm 0.00 in0.0 mm 0.00 in0.0 mm
12:35 PM 62.1°F16.7°C 42.1°F5.6°C 48% 3.0 mph NW4.8 kmh NW 10.0 mph16.1 kmh 29.94 in1013.9 mb 0.00 in0.0 mm 0.00 in0.0 mm 0.00 in0.0 mm
12:40 PM 62.4°F16.9°C 41.4°F5.2°C 46% 2.0 mph NW3.2 kmh NW 11.0 mph17.7 kmh 29.94 in1013.9 mb 0.00 in0.0 mm 0.00 in0.0 mm 0.00 in0.0 mm
12:45 PM 62.8°F17.1°C 42.3°F5.7°C 47% 2.0 mph W3.2 kmh W 11.0 mph17.7 kmh 29.93 in1013.5 mb 0.00 in0.0 mm 0.00 in0.0 mm 0.00 in0.0 mm
12:50 PM 64.0°F17.8°C 43.3°F6.3°C 47% 2.0 mph WNW3.2 kmh WNW 8.0 mph12.9 kmh 29.94 in1013.9 mb 0.00 in0.0 mm 0.00 in0.0 mm 0.00 in0.0 mm
12:55 PM 65.1°F18.4°C 43.2°F6.2°C 45% 2.0 mph NW3.2 kmh NW 8.0 mph12.9 kmh 29.93 in1013.5 mb 0.00 in0.0 mm 0.00 in0.0 mm 0.00 in0.0 mm
01:00 PM 65.1°F18.4°C 43.3°F6.3°C 45% 2.0 mph W3.2 kmh W 8.0 mph12.9 kmh 29.93 in1013.5 mb 0.00 in0.0 mm 0.00 in0.0 mm 0.00 in0.0 mm
01:05 PM 64.6°F18.1°C 43.3°F6.3°C 46% 2.0 mph W3.2 kmh W 8.0 mph12.9 kmh 29.93 in1013.5 mb 0.00 in0.0 mm 0.00 in0.0 mm 0.00 in0.0 mm
01:10 PM 63.9°F17.7°C 42.6°F5.9°C 46% 2.0 mph W3.2 kmh W 8.0 mph12.9 kmh 29.94 in1013.9 mb 0.00 in0.0 mm 0.00 in0.0 mm 0.00 in0.0 mm
01:15 PM 63.3°F17.4°C 42.8°F6.0°C 47% 3.0 mph W4.8 kmh W 8.0 mph12.9 kmh 29.93 in1013.5 mb 0.00 in0.0 mm 0.00 in0.0 mm 0.00 in0.0 mm
01:20 PM 63.0°F17.2°C 42.4°F5.8°C 47% 3.0 mph W4.8 kmh W 13.0 mph20.9 kmh 29.93 in1013.5 mb 0.00 in0.0 mm 0.00 in0.0 mm 0.00 in0.0 mm
01:25 PM 63.0°F17.2°C 43.0°F6.1°C 48% 3.0 mph NW4.8 kmh NW 13.0 mph20.9 kmh 29.93 in1013.5 mb 0.00 in0.0 mm 0.00 in0.0 mm 0.00 in0.0 mm
01:30 PM 63.3°F17.4°C 43.3°F6.3°C 48% 3.0 mph WNW4.8 kmh WNW 11.0 mph17.7 kmh 29.93 in1013.5 mb 0.00 in0.0 mm 0.00 in0.0 mm 0.00 in0.0 mm
01:35 PM 63.9°F17.7°C 42.6°F5.9°C 46% 3.0 mph WNW4.8 kmh WNW 11.0 mph17.7 kmh 29.93 in1013.5 mb 0.00 in0.0 mm 0.00 in0.0 mm 0.00 in0.0 mm
01:40 PM 64.6°F18.1°C 44.4°F6.9°C 48% 3.0 mph NW4.8 kmh NW 8.0 mph12.9 kmh 29.93 in1013.5 mb 0.00 in0.0 mm 0.00 in0.0 mm 0.00 in0.0 mm
01:45 PM 65.5°F18.6°C 44.2°F6.8°C 46% 2.0 mph WNW3.2 kmh WNW 9.0 mph14.5 kmh 29.93 in1013.5 mb 0.00 in0.0 mm 0.00 in0.0 mm 0.00 in0.0 mm
01:50 PM 65.7°F18.7°C 43.7°F6.5°C 45% 2.0 mph W3.2 kmh W 9.0 mph14.5 kmh 29.93 in1013.5 mb 0.00 in0.0 mm 0.00 in0.0 mm 0.00 in0.0 mm
01:55 PM 65.8°F18.8°C 43.9°F6.6°C 45% 3.0 mph WNW4.8 kmh WNW 11.0 mph17.7 kmh 29.93 in1013.5 mb 0.00 in0.0 mm 0.00 in0.0 mm 0.00 in0.0 mm
02:00 PM 65.1°F18.4°C 42.8°F6.0°C 44% 3.0 mph WNW4.8 kmh WNW 13.0 mph20.9 kmh 29.92 in1013.2 mb 0.00 in0.0 mm 0.00 in0.0 mm 0.00 in0.0 mm
02:05 PM 64.9°F18.3°C 43.7°F6.5°C 46% 3.0 mph WNW4.8 kmh WNW 13.0 mph20.9 kmh 29.92 in1013.2 mb 0.00 in0.0 mm 0.00 in0.0 mm 0.00 in0.0 mm
02:10 PM 64.8°F18.2°C 43.5°F6.4°C 46% 3.0 mph WNW4.8 kmh WNW 10.0 mph16.1 kmh 29.93 in1013.5 mb 0.00 in0.0 mm 0.00 in0.0 mm 0.00 in0.0 mm
02:15 PM 64.0°F17.8°C 43.9°F6.6°C 48% 3.0 mph NW4.8 kmh NW 10.0 mph16.1 kmh 29.93 in1013.5 mb 0.00 in0.0 mm 0.00 in0.0 mm 0.00 in0.0 mm
02:20 PM 63.3°F17.4°C 42.8°F6.0°C 47% 4.0 mph NW6.4 kmh NW 10.0 mph16.1 kmh 29.93 in1013.5 mb 0.00 in0.0 mm 0.00 in0.0 mm 0.00 in0.0 mm
02:25 PM 63.3°F17.4°C 43.3°F6.3°C 48% 3.0 mph NW4.8 kmh NW 10.0 mph16.1 kmh 29.93 in1013.5 mb 0.00 in0.0 mm 0.00 in0.0 mm 0.00 in0.0 mm
02:30 PM 63.7°F17.6°C 43.2°F6.2°C 47% 2.0 mph NW3.2 kmh NW 8.0 mph12.9 kmh 29.93 in1013.5 mb 0.00 in0.0 mm 0.00 in0.0 mm 0.00 in0.0 mm
02:35 PM 64.0°F17.8°C 43.9°F6.6°C 48% 2.0 mph NW3.2 kmh NW 8.0 mph12.9 kmh 29.93 in1013.5 mb 0.00 in0.0 mm 0.00 in0.0 mm 0.00 in0.0 mm
02:40 PM 64.2°F17.9°C 43.7°F6.5°C 47% 2.0 mph NW3.2 kmh NW 8.0 mph12.9 kmh 29.93 in1013.5 mb 0.00 in0.0 mm 0.00 in0.0 mm 0.00 in0.0 mm
02:45 PM 64.0°F17.8°C 43.9°F6.6°C 48% 2.0 mph NW3.2 kmh NW 8.0 mph12.9 kmh 29.93 in1013.5 mb 0.00 in0.0 mm 0.00 in0.0 mm 0.00 in0.0 mm
02:50 PM 64.0°F17.8°C 43.9°F6.6°C 48% 2.0 mph WNW3.2 kmh WNW 7.0 mph11.3 kmh 29.93 in1013.5 mb 0.00 in0.0 mm 0.00 in0.0 mm 0.00 in0.0 mm
02:55 PM 64.6°F18.1°C 44.4°F6.9°C 48% 3.0 mph NW4.8 kmh NW 10.0 mph16.1 kmh 29.93 in1013.5 mb 0.00 in0.0 mm 0.00 in0.0 mm 0.00 in0.0 mm
03:00 PM 64.9°F18.3°C 44.8°F7.1°C 48% 3.0 mph WNW4.8 kmh WNW 10.0 mph16.1 kmh 29.93 in1013.5 mb 0.00 in0.0 mm 0.00 in0.0 mm 0.00 in0.0 mm
03:05 PM 65.7°F18.7°C 45.0°F7.2°C 47% 3.0 mph W4.8 kmh W 10.0 mph16.1 kmh 29.93 in1013.5 mb 0.00 in0.0 mm 0.00 in0.0 mm 0.00 in0.0 mm
03:10 PM 65.5°F18.6°C 44.8°F7.1°C 47% 2.0 mph WSW3.2 kmh WSW 7.0 mph11.3 kmh 29.92 in1013.2 mb 0.00 in0.0 mm 0.00 in0.0 mm 0.00 in0.0 mm
03:15 PM 65.5°F18.6°C 44.8°F7.1°C 47% 2.0 mph WSW3.2 kmh WSW 8.0 mph12.9 kmh 29.92 in1013.2 mb 0.00 in0.0 mm 0.00 in0.0 mm 0.00 in0.0 mm
03:20 PM 65.8°F18.8°C 45.0°F7.2°C 47% 2.0 mph W3.2 kmh W 11.0 mph17.7 kmh 29.92 in1013.2 mb 0.00 in0.0 mm 0.00 in0.0 mm 0.00 in0.0 mm
03:25 PM 65.7°F18.7°C 43.7°F6.5°C 45% 2.0 mph NW3.2 kmh NW 11.0 mph17.7 kmh 29.92 in1013.2 mb 0.00 in0.0 mm 0.00 in0.0 mm 0.00 in0.0 mm
03:30 PM 65.1°F18.4°C 43.2°F6.2°C 45% 3.0 mph WNW4.8 kmh WNW 9.0 mph14.5 kmh 29.92 in1013.2 mb 0.00 in0.0 mm 0.00 in0.0 mm 0.00 in0.0 mm
03:35 PM 64.8°F18.2°C 43.5°F6.4°C 46% 3.0 mph NW4.8 kmh NW 12.0 mph19.3 kmh 29.92 in1013.2 mb 0.00 in0.0 mm 0.00 in0.0 mm 0.00 in0.0 mm
03:40 PM 64.8°F18.2°C 42.8°F6.0°C 45% 3.0 mph NW4.8 kmh NW 12.0 mph19.3 kmh 29.92 in1013.2 mb 0.00 in0.0 mm 0.00 in0.0 mm 0.00 in0.0 mm
03:45 PM 64.9°F18.3°C 43.0°F6.1°C 45% 3.0 mph NW4.8 kmh NW 11.0 mph17.7 kmh 29.92 in1013.2 mb 0.00 in0.0 mm 0.00 in0.0 mm 0.00 in0.0 mm
03:50 PM 65.3°F18.5°C 43.3°F6.3°C 45% 3.0 mph NW4.8 kmh NW 9.0 mph14.5 kmh 29.91 in1012.9 mb 0.00 in0.0 mm 0.00 in0.0 mm 0.00 in0.0 mm
03:55 PM 64.9°F18.3°C 43.2°F6.2°C 45% 3.0 mph WNW4.8 kmh WNW 8.0 mph12.9 kmh 29.92 in1013.2 mb 0.00 in0.0 mm 0.00 in0.0 mm 0.00 in0.0 mm
04:00 PM 64.8°F18.2°C 42.8°F6.0°C 45% 3.0 mph NW4.8 kmh NW 9.0 mph14.5 kmh 29.92 in1013.2 mb 0.00 in0.0 mm 0.00 in0.0 mm 0.00 in0.0 mm
04:05 PM 64.2°F17.9°C 42.4°F5.8°C 45% 5.0 mph NW8.0 kmh NW 13.0 mph20.9 kmh 29.91 in1012.9 mb 0.00 in0.0 mm 0.00 in0.0 mm 0.00 in0.0 mm
04:10 PM 64.9°F18.3°C 43.2°F6.2°C 45% 4.0 mph NW6.4 kmh NW 13.0 mph20.9 kmh 29.91 in1012.9 mb 0.00 in0.0 mm 0.00 in0.0 mm 0.00 in0.0 mm
04:15 PM 65.5°F18.6°C 43.0°F6.1°C 44% 3.0 mph WNW4.8 kmh WNW 12.0 mph19.3 kmh 29.91 in1012.9 mb 0.00 in0.0 mm 0.00 in0.0 mm 0.00 in0.0 mm
04:20 PM 64.9°F18.3°C 42.6°F5.9°C 44% 4.0 mph NW6.4 kmh NW 12.0 mph19.3 kmh 29.91 in1012.9 mb 0.00 in0.0 mm 0.00 in0.0 mm 0.00 in0.0 mm
04:25 PM 64.8°F18.2°C 43.0°F6.1°C 45% 3.0 mph NW4.8 kmh NW 10.0 mph16.1 kmh 29.92 in1013.2 mb 0.00 in0.0 mm 0.00 in0.0 mm 0.00 in0.0 mm
04:30 PM 64.8°F18.2°C 42.8°F6.0°C 45% 3.0 mph NW4.8 kmh NW 9.0 mph14.5 kmh 29.91 in1012.9 mb 0.00 in0.0 mm 0.00 in0.0 mm 0.00 in0.0 mm
04:35 PM 64.9°F18.3°C 43.0°F6.1°C 45% 2.0 mph NW3.2 kmh NW 7.0 mph11.3 kmh 29.91 in1012.9 mb 0.00 in0.0 mm 0.00 in0.0 mm 0.00 in0.0 mm
04:40 PM 64.9°F18.3°C 42.4°F5.8°C 44% 3.0 mph NW4.8 kmh NW 11.0 mph17.7 kmh 29.91 in1012.9 mb 0.00 in0.0 mm 0.00 in0.0 mm 0.00 in0.0 mm
04:45 PM 64.6°F18.1°C 42.1°F5.6°C 44% 5.0 mph NW8.0 kmh NW 15.0 mph24.1 kmh 29.91 in1012.9 mb 0.00 in0.0 mm 0.00 in0.0 mm 0.00 in0.0 mm
04:50 PM 64.8°F18.2°C 42.8°F6.0°C 45% 5.0 mph NW8.0 kmh NW 15.0 mph24.1 kmh 29.91 in1012.9 mb 0.00 in0.0 mm 0.00 in0.0 mm 0.00 in0.0 mm
04:55 PM 64.8°F18.2°C 42.4°F5.8°C 44% 5.0 mph NW8.0 kmh NW 11.0 mph17.7 kmh 29.91 in1012.9 mb 0.00 in0.0 mm 0.00 in0.0 mm 0.00 in0.0 mm
05:00 PM 64.8°F18.2°C 42.3°F5.7°C 44% 4.0 mph NW6.4 kmh NW 11.0 mph17.7 kmh 29.91 in1012.9 mb 0.00 in0.0 mm 0.00 in0.0 mm 0.00 in0.0 mm
05:05 PM 64.9°F18.3°C 41.9°F5.5°C 43% 4.0 mph NW6.4 kmh NW 11.0 mph17.7 kmh 29.91 in1012.9 mb 0.00 in0.0 mm 0.00 in0.0 mm 0.00 in0.0 mm
05:10 PM 64.9°F18.3°C 41.9°F5.5°C 43% 4.0 mph NW6.4 kmh NW 11.0 mph17.7 kmh 29.91 in1012.9 mb 0.00 in0.0 mm 0.00 in0.0 mm 0.00 in0.0 mm
05:15 PM 65.5°F18.6°C 42.3°F5.7°C 43% 4.0 mph NW6.4 kmh NW 14.0 mph22.5 kmh 29.91 in1012.9 mb 0.00 in0.0 mm 0.00 in0.0 mm 0.00 in0.0 mm
05:20 PM 64.9°F18.3°C 41.9°F5.5°C 43% 4.0 mph NW6.4 kmh NW 14.0 mph22.5 kmh 29.91 in1012.9 mb 0.00 in0.0 mm 0.00 in0.0 mm 0.00 in0.0 mm
05:25 PM 64.9°F18.3°C 41.2°F5.1°C 42% 4.0 mph NW6.4 kmh NW 10.0 mph16.1 kmh 29.91 in1012.9 mb 0.00 in0.0 mm 0.00 in0.0 mm 0.00 in0.0 mm
05:30 PM 64.9°F18.3°C 41.2°F5.1°C 42% 3.0 mph NW4.8 kmh NW 10.0 mph16.1 kmh 29.91 in1012.9 mb 0.00 in0.0 mm 0.00 in0.0 mm 0.00 in0.0 mm
05:35 PM 64.6°F18.1°C 41.5°F5.3°C 43% 3.0 mph NW4.8 kmh NW 14.0 mph22.5 kmh 29.91 in1012.9 mb 0.00 in0.0 mm 0.00 in0.0 mm 0.00 in0.0 mm
05:40 PM 64.2°F17.9°C 41.4°F5.2°C 43% 4.0 mph NW6.4 kmh NW 14.0 mph22.5 kmh 29.91 in1012.9 mb 0.00 in0.0 mm 0.00 in0.0 mm 0.00 in0.0 mm
05:45 PM 63.7°F17.6°C 40.8°F4.9°C 43% 5.0 mph NW8.0 kmh NW 14.0 mph22.5 kmh 29.91 in1012.9 mb 0.00 in0.0 mm 0.00 in0.0 mm 0.00 in0.0 mm
05:50 PM 63.7°F17.6°C 40.6°F4.8°C 43% 4.0 mph NW6.4 kmh NW 14.0 mph22.5 kmh 29.92 in1013.2 mb 0.00 in0.0 mm 0.00 in0.0 mm 0.00 in0.0 mm
05:55 PM 63.5°F17.5°C 41.2°F5.1°C 44% 3.0 mph NW4.8 kmh NW 7.0 mph11.3 kmh 29.92 in1013.2 mb 0.00 in0.0 mm 0.00 in0.0 mm 0.00 in0.0 mm
06:00 PM 63.3°F17.4°C 41.0°F5.0°C 44% 2.0 mph NW3.2 kmh NW 6.0 mph9.7 kmh 29.92 in1013.2 mb 0.00 in0.0 mm 0.00 in0.0 mm 0.00 in0.0 mm
06:05 PM 63.3°F17.4°C 41.5°F5.3°C 45% 2.0 mph NW3.2 kmh NW 8.0 mph12.9 kmh 29.92 in1013.2 mb 0.00 in0.0 mm 0.00 in0.0 mm 0.00 in0.0 mm
06:10 PM 63.1°F17.3°C 41.0°F5.0°C 44% 2.0 mph NW3.2 kmh NW 8.0 mph12.9 kmh 29.92 in1013.2 mb 0.00 in0.0 mm 0.00 in0.0 mm 0.00 in0.0 mm
06:15 PM 63.1°F17.3°C 41.0°F5.0°C 44% 2.0 mph NW3.2 kmh NW 10.0 mph16.1 kmh 29.92 in1013.2 mb 0.00 in0.0 mm 0.00 in0.0 mm 0.00 in0.0 mm
06:20 PM 63.0°F17.2°C 41.2°F5.1°C 45% 3.0 mph NW4.8 kmh NW 11.0 mph17.7 kmh 29.92 in1013.2 mb 0.00 in0.0 mm 0.00 in0.0 mm 0.00 in0.0 mm
06:25 PM 62.8°F17.1°C 41.0°F5.0°C 45% 3.0 mph NW4.8 kmh NW 11.0 mph17.7 kmh 29.92 in1013.2 mb 0.00 in0.0 mm 0.00 in0.0 mm 0.00 in0.0 mm
06:30 PM 62.6°F17.0°C 41.0°F5.0°C 45% 2.0 mph NW3.2 kmh NW 10.0 mph16.1 kmh 29.92 in1013.2 mb 0.00 in0.0 mm 0.00 in0.0 mm 0.00 in0.0 mm
06:35 PM 62.2°F16.8°C 41.2°F5.1°C 46% 3.0 mph NW4.8 kmh NW 10.0 mph16.1 kmh 29.92 in1013.2 mb 0.00 in0.0 mm 0.00 in0.0 mm 0.00 in0.0 mm
06:40 PM 62.1°F16.7°C 41.0°F5.0°C 46% 5.0 mph NW8.0 kmh NW 11.0 mph17.7 kmh 29.92 in1013.2 mb 0.00 in0.0 mm 0.00 in0.0 mm 0.00 in0.0 mm
06:45 PM 61.9°F16.6°C 41.4°F5.2°C 47% 4.0 mph NW6.4 kmh NW 11.0 mph17.7 kmh 29.92 in1013.2 mb 0.00 in0.0 mm 0.00 in0.0 mm 0.00 in0.0 mm
06:50 PM 61.5°F16.4°C 41.2°F5.1°C 47% 4.0 mph NW6.4 kmh NW 10.0 mph16.1 kmh 29.93 in1013.5 mb 0.00 in0.0 mm 0.00 in0.0 mm 0.00 in0.0 mm
06:55 PM 61.3°F16.3°C 41.0°F5.0°C 47% 3.0 mph NW4.8 kmh NW 9.0 mph14.5 kmh 29.93 in1013.5 mb 0.00 in0.0 mm 0.00 in0.0 mm 0.00 in0.0 mm
07:00 PM 61.3°F16.3°C 41.4°F5.2°C 48% 3.0 mph NW4.8 kmh NW 9.0 mph14.5 kmh 29.93 in1013.5 mb 0.00 in0.0 mm 0.00 in0.0 mm 0.00 in0.0 mm
07:05 PM 61.3°F16.3°C 41.4°F5.2°C 48% 3.0 mph NW4.8 kmh NW 8.0 mph12.9 kmh 29.93 in1013.5 mb 0.00 in0.0 mm 0.00 in0.0 mm 0.00 in0.0 mm
07:10 PM 61.3°F16.3°C 41.4°F5.2°C 48% 3.0 mph NW4.8 kmh NW 9.0 mph14.5 kmh 29.93 in1013.5 mb 0.00 in0.0 mm 0.00 in0.0 mm 0.00 in0.0 mm
07:15 PM 61.3°F16.3°C 41.4°F5.2°C 48% 2.0 mph NW3.2 kmh NW 9.0 mph14.5 kmh 29.93 in1013.5 mb 0.00 in0.0 mm 0.00 in0.0 mm 0.00 in0.0 mm
07:20 PM 61.2°F16.2°C 41.4°F5.2°C 48% 1.0 mph NW1.6 kmh NW 6.0 mph9.7 kmh 29.93 in1013.5 mb 0.00 in0.0 mm 0.00 in0.0 mm 0.00 in0.0 mm
07:25 PM 61.2°F16.2°C 41.2°F5.1°C 48% 1.0 mph NW1.6 kmh NW 8.0 mph12.9 kmh 29.93 in1013.5 mb 0.00 in0.0 mm 0.00 in0.0 mm 0.00 in0.0 mm
07:30 PM 61.2°F16.2°C 41.2°F5.1°C 48% 1.0 mph NW1.6 kmh NW 8.0 mph12.9 kmh 29.93 in1013.5 mb 0.00 in0.0 mm 0.00 in0.0 mm 0.00 in0.0 mm
07:35 PM 61.0°F16.1°C 41.5°F5.3°C 49% 1.0 mph NW1.6 kmh NW 8.0 mph12.9 kmh 29.93 in1013.5 mb 0.00 in0.0 mm 0.00 in0.0 mm 0.00 in0.0 mm
07:40 PM 61.0°F16.1°C 41.5°F5.3°C 49% 1.0 mph NW1.6 kmh NW 8.0 mph12.9 kmh 29.93 in1013.5 mb 0.00 in0.0 mm 0.00 in0.0 mm 0.00 in0.0 mm
07:45 PM 60.8°F16.0°C 41.5°F5.3°C 49% Calm Calm 4.0 mph6.4 kmh 29.93 in1013.5 mb 0.00 in0.0 mm 0.00 in0.0 mm 0.00 in0.0 mm
07:50 PM 60.6°F15.9°C 41.9°F5.5°C 50% 1.0 mph NW1.6 kmh NW 3.0 mph4.8 kmh 29.93 in1013.5 mb 0.00 in0.0 mm 0.00 in0.0 mm 0.00 in0.0 mm
07:55 PM 60.6°F15.9°C 41.9°F5.5°C 50% Calm Calm 3.0 mph4.8 kmh 29.94 in1013.9 mb 0.00 in0.0 mm 0.00 in0.0 mm 0.00 in0.0 mm
08:00 PM 60.4°F15.8°C 41.7°F5.4°C 50% 1.0 mph NW1.6 kmh NW 4.0 mph6.4 kmh 29.94 in1013.9 mb 0.00 in0.0 mm 0.00 in0.0 mm 0.00 in0.0 mm
08:05 PM 60.4°F15.8°C 41.7°F5.4°C 50% 1.0 mph NW1.6 kmh NW 5.0 mph8.0 kmh 29.94 in1013.9 mb 0.00 in0.0 mm 0.00 in0.0 mm 0.00 in0.0 mm
08:10 PM 60.3°F15.7°C 41.5°F5.3°C 50% 1.0 mph NW1.6 kmh NW 6.0 mph9.7 kmh 29.94 in1013.9 mb 0.00 in0.0 mm 0.00 in0.0 mm 0.00 in0.0 mm
08:15 PM 60.1°F15.6°C 41.7°F5.4°C 51% 1.0 mph NW1.6 kmh NW 6.0 mph9.7 kmh 29.94 in1013.9 mb 0.00 in0.0 mm 0.00 in0.0 mm 0.00 in0.0 mm
08:20 PM 59.9°F15.5°C 41.7°F5.4°C 51% Calm Calm 5.0 mph8.0 kmh 29.94 in1013.9 mb 0.00 in0.0 mm 0.00 in0.0 mm 0.00 in0.0 mm
08:25 PM 59.7°F15.4°C 42.1°F5.6°C 52% 1.0 mph NW1.6 kmh NW 4.0 mph6.4 kmh 29.94 in1013.9 mb 0.00 in0.0 mm 0.00 in0.0 mm 0.00 in0.0 mm
08:30 PM 59.7°F15.4°C 42.1°F5.6°C 52% 1.0 mph NW1.6 kmh NW 4.0 mph6.4 kmh 29.94 in1013.9 mb 0.00 in0.0 mm 0.00 in0.0 mm 0.00 in0.0 mm
08:35 PM 59.5°F15.3°C 41.9°F5.5°C 52% Calm Calm 3.0 mph4.8 kmh 29.94 in1013.9 mb 0.00 in0.0 mm 0.00 in0.0 mm 0.00 in0.0 mm
08:40 PM 59.4°F15.2°C 42.3°F5.7°C 53% Calm Calm 3.0 mph4.8 kmh 29.95 in1014.2 mb 0.00 in0.0 mm 0.00 in0.0 mm 0.00 in0.0 mm
08:45 PM 59.2°F15.1°C 42.1°F5.6°C 53% Calm Calm 1.0 mph1.6 kmh 29.95 in1014.2 mb 0.00 in0.0 mm 0.00 in0.0 mm 0.00 in0.0 mm
08:50 PM 59.0°F15.0°C 41.9°F5.5°C 53% Calm Calm 2.0 mph3.2 kmh 29.95 in1014.2 mb 0.00 in0.0 mm 0.00 in0.0 mm 0.00 in0.0 mm
08:55 PM 58.8°F14.9°C 42.6°F5.9°C 55% Calm Calm 2.0 mph3.2 kmh 29.95 in1014.2 mb 0.00 in0.0 mm 0.00 in0.0 mm 0.00 in0.0 mm
09:00 PM 58.5°F14.7°C 42.8°F6.0°C 56% Calm Calm 1.0 mph1.6 kmh 29.95 in1014.2 mb 0.00 in0.0 mm 0.00 in0.0 mm 0.00 in0.0 mm
09:05 PM 57.9°F14.4°C 42.3°F5.7°C 56% Calm Calm -- 29.95 in1014.2 mb 0.00 in0.0 mm 0.00 in0.0 mm 0.00 in0.0 mm
09:10 PM 57.2°F14.0°C 42.1°F5.6°C 57% Calm Calm -- 29.95 in1014.2 mb 0.00 in0.0 mm 0.00 in0.0 mm 0.00 in0.0 mm
09:15 PM 56.7°F13.7°C 42.1°F5.6°C 58% Calm Calm -- 29.95 in1014.2 mb 0.00 in0.0 mm 0.00 in0.0 mm 0.00 in0.0 mm
09:20 PM 56.1°F13.4°C 42.4°F5.8°C 60% Calm Calm -- 29.94 in1013.9 mb 0.00 in0.0 mm 0.00 in0.0 mm 0.00 in0.0 mm
09:25 PM 55.6°F13.1°C 41.9°F5.5°C 60% Calm Calm -- 29.95 in1014.2 mb 0.00 in0.0 mm 0.00 in0.0 mm 0.00 in0.0 mm
09:30 PM 55.0°F12.8°C 41.7°F5.4°C 61% Calm Calm -- 29.95 in1014.2 mb 0.00 in0.0 mm 0.00 in0.0 mm 0.00 in0.0 mm
09:35 PM 54.5°F12.5°C 41.7°F5.4°C 62% Calm Calm -- 29.95 in1014.2 mb 0.00 in0.0 mm 0.00 in0.0 mm 0.00 in0.0 mm
09:40 PM 54.1°F12.3°C 41.4°F5.2°C 62% Calm Calm -- 29.95 in1014.2 mb 0.00 in0.0 mm 0.00 in0.0 mm 0.00 in0.0 mm
09:45 PM 53.8°F12.1°C 41.5°F5.3°C 63% Calm Calm -- 29.95 in1014.2 mb 0.00 in0.0 mm 0.00 in0.0 mm 0.00 in0.0 mm
09:50 PM 53.4°F11.9°C 41.9°F5.5°C 65% Calm Calm -- 29.95 in1014.2 mb 0.00 in0.0 mm 0.00 in0.0 mm 0.00 in0.0 mm
09:55 PM 53.1°F11.7°C 41.5°F5.3°C 65% Calm Calm -- 29.95 in1014.2 mb 0.00 in0.0 mm 0.00 in0.0 mm 0.00 in0.0 mm
10:00 PM 52.3°F11.3°C 41.4°F5.2°C 66% Calm Calm -- 29.95 in1014.2 mb 0.00 in0.0 mm 0.00 in0.0 mm 0.00 in0.0 mm
10:05 PM 52.0°F11.1°C 41.7°F5.4°C 68% Calm Calm -- 29.95 in1014.2 mb 0.00 in0.0 mm 0.00 in0.0 mm 0.00 in0.0 mm
10:10 PM 51.8°F11.0°C 41.5°F5.3°C 68% Calm Calm -- 29.95 in1014.2 mb 0.00 in0.0 mm 0.00 in0.0 mm 0.00 in0.0 mm
10:15 PM 51.6°F10.9°C 41.7°F5.4°C 69% Calm Calm -- 29.95 in1014.2 mb 0.00 in0.0 mm 0.00 in0.0 mm 0.00 in0.0 mm
10:20 PM 51.4°F10.8°C 41.9°F5.5°C 70% Calm Calm -- 29.95 in1014.2 mb 0.00 in0.0 mm 0.00 in0.0 mm 0.00 in0.0 mm
10:25 PM 51.3°F10.7°C 42.1°F5.6°C 71% Calm Calm -- 29.95 in1014.2 mb 0.00 in0.0 mm 0.00 in0.0 mm 0.00 in0.0 mm
10:30 PM 51.1°F10.6°C 42.4°F5.8°C 72% Calm Calm -- 29.95 in1014.2 mb 0.00 in0.0 mm 0.00 in0.0 mm 0.00 in0.0 mm
10:35 PM 51.1°F10.6°C 42.6°F5.9°C 73% Calm Calm -- 29.95 in1014.2 mb 0.00 in0.0 mm 0.00 in0.0 mm 0.00 in0.0 mm
10:40 PM 50.5°F10.3°C 42.3°F5.7°C 73% Calm Calm -- 29.95 in1014.2 mb 0.00 in0.0 mm 0.00 in0.0 mm 0.00 in0.0 mm
10:45 PM 50.4°F10.2°C 41.9°F5.5°C 73% Calm Calm -- 29.95 in1014.2 mb 0.00 in0.0 mm 0.00 in0.0 mm 0.00 in0.0 mm
10:50 PM 50.2°F10.1°C 41.9°F5.5°C 73% Calm Calm -- 29.95 in1014.2 mb 0.00 in0.0 mm 0.00 in0.0 mm 0.00 in0.0 mm
10:55 PM 49.8°F9.9°C 41.9°F5.5°C 74% Calm Calm -- 29.95 in1014.2 mb 0.00 in0.0 mm 0.00 in0.0 mm 0.00 in0.0 mm
11:00 PM 49.8°F9.9°C 42.3°F5.7°C 75% Calm Calm -- 29.95 in1014.2 mb 0.00 in0.0 mm 0.00 in0.0 mm 0.00 in0.0 mm
11:05 PM 49.8°F9.9°C 42.3°F5.7°C 75% Calm Calm -- 29.95 in1014.2 mb 0.00 in0.0 mm 0.00 in0.0 mm 0.00 in0.0 mm
11:10 PM 49.8°F9.9°C 42.6°F5.9°C 76% Calm Calm -- 29.95 in1014.2 mb 0.00 in0.0 mm 0.00 in0.0 mm 0.00 in0.0 mm
11:15 PM 49.6°F9.8°C 42.4°F5.8°C 76% Calm Calm -- 29.95 in1014.2 mb 0.00 in0.0 mm 0.00 in0.0 mm 0.00 in0.0 mm
11:20 PM 49.6°F9.8°C 42.4°F5.8°C 76% Calm Calm -- 29.95 in1014.2 mb 0.00 in0.0 mm 0.00 in0.0 mm 0.00 in0.0 mm
11:25 PM 49.6°F9.8°C 42.4°F5.8°C 76% Calm Calm -- 29.95 in1014.2 mb 0.00 in0.0 mm 0.00 in0.0 mm 0.00 in0.0 mm
11:30 PM 49.6°F9.8°C 42.3°F5.7°C 76% Calm Calm -- 29.95 in1014.2 mb 0.00 in0.0 mm 0.00 in0.0 mm 0.00 in0.0 mm
11:35 PM 49.5°F9.7°C 42.4°F5.8°C 77% Calm Calm -- 29.95 in1014.2 mb 0.00 in0.0 mm 0.00 in0.0 mm 0.00 in0.0 mm
11:40 PM 49.3°F9.6°C 42.4°F5.8°C 77% Calm Calm -- 29.94 in1013.9 mb 0.00 in0.0 mm 0.00 in0.0 mm 0.00 in0.0 mm
11:45 PM 49.3°F9.6°C 42.4°F5.8°C 77% Calm Calm -- 29.94 in1013.9 mb 0.00 in0.0 mm 0.00 in0.0 mm 0.00 in0.0 mm
11:50 PM 49.3°F9.6°C 42.4°F5.8°C 77% Calm Calm -- 29.94 in1013.9 mb 0.00 in0.0 mm 0.00 in0.0 mm 0.00 in0.0 mm
11:55 PM 49.3°F9.6°C 42.4°F5.8°C 77% Calm Calm -- 29.94 in1013.9 mb 0.00 in0.0 mm 0.00 in0.0 mm 0.00 in0.0 mm